マルセイユ・プロヴァンス空港の過去48時間の天気

マルセイユ・プロヴァンス空港 (Marseille / Marignane)

現在時刻: 5/26 03:51 CEST (5/26 01:51 UTC) 以下の時間は現地時間です。

過去48時間のMETAR気象情報
時間 風向 風速(m/s) 視程 気温(℃) 湿度(%) 気圧(hPa) 天気現象
26 03:30 北北西 6 10km以上 21 46 1017
26 03:00 北西 6 10km以上 21 43 1017
26 02:30 北北西 5 10km以上 21 46 1017
26 02:00 4 10km以上 21 46 1017
26 01:30 北北西 7 10km以上 22 43 1017
26 01:00 5 10km以上 22 43 1017
26 00:30 6 10km以上 22 43 1017
26 00:00 8 10km以上 23 44 1017
25 23:30 北北西 9 10km以上 23 44 1017
25 23:00 北北西 9 10km以上 23 44 1016
25 22:30 北北西 9 10km以上 24 44 1016
25 22:00 北北西 8 10km以上 24 44 1016
25 21:30 西 3 10km以上 24 47 1015
25 21:00 南南西 2 10km以上 23 53 1015
25 20:30 東南東 1 10km以上 24 47 1015
25 20:00 南南東 3 10km以上 24 50 1015
25 19:30 南東 5 10km以上 24 54 1014
25 19:00 5 10km以上 27 39 1013
25 18:30 3 10km以上 28 35 1013
25 18:00 西北西 4 10km以上 28 37 1013
25 17:30 西北西 5 10km以上 28 35 1013
25 17:00 西 6 10km以上 26 42 1013
25 16:30 西北西 5 10km以上 27 37 1013
25 16:00 西北西 4 10km以上 26 39 1013
25 15:30 西北西 4 10km以上 26 37 1013
25 15:00 北北西 5 10km以上 25 39 1013
25 14:30 北北西 5 10km以上 24 41 1013
25 14:00 北北西 6 10km以上 24 44 1013
25 13:30 北西 7 10km以上 23 44 1013
25 13:00 北北西 7 10km以上 23 47 1013
25 12:30 北北西 7 10km以上 23 44 1013
25 12:00 北北西 7 10km以上 24 41 1013
25 11:30 北西 7 10km以上 22 46 1012
25 11:00 北西 7 10km以上 22 43 1012
25 10:30 北西 7 10km以上 22 46 1012
25 10:00 北北西 3 10km以上 22 46 1012
25 09:30 北北西 3 10km以上 21 49 1011
25 09:00 4 10km以上 21 49 1011
25 08:30 5 10km以上 19 56 1011
25 08:00 3 10km以上 19 52 1011
25 07:30 5 10km以上 19 52 1010
25 07:00 3 10km以上 19 52 1010
25 06:30 北北西 5 10km以上 19 52 1010
25 06:00 北西 5 10km以上 18 56 1010
25 05:30 北西 5 10km以上 18 56 1010
25 05:00 北西 5 10km以上 19 52 1009
25 04:30 北西 6 10km以上 19 52 1009
25 04:00 北西 7 10km以上 19 52 1009
25 03:30 北西 6 10km以上 20 53 1009
25 03:00 北西 5 10km以上 19 56 1009
25 02:30 北西 5 10km以上 20 53 1009
25 02:00 西北西 6 10km以上 19 60 1009
25 01:30 西北西 5 10km以上 19 60 1010
25 01:00 西北西 5 10km以上 19 60 1010
25 00:30 西 7 10km以上 20 60 1009
25 00:00 西北西 4 10km以上 20 53 1010
24 23:30 西北西 5 10km以上 20 56 1009
24 23:00 北西 5 10km以上 22 43 1009
24 22:30 北西 5 10km以上 22 46 1009
24 22:00 北西 4 10km以上 22 46 1009
LFML 260130Z AUTO 33012KT CAVOK 21/09 Q1017 NOSIG
LFML 260100Z AUTO 32012KT CAVOK 21/08 Q1017 NOSIG
LFML 260030Z AUTO 34009KT CAVOK 21/09 Q1017 NOSIG
LFML 260000Z AUTO 36008KT CAVOK 21/09 Q1017 NOSIG
LFML 252330Z AUTO 34013KT CAVOK 22/09 Q1017 NOSIG
LFML 252300Z AUTO 36010KT CAVOK 22/09 Q1017 NOSIG
LFML 252230Z AUTO 35012KT CAVOK 22/09 Q1017 NOSIG
LFML 252200Z AUTO 35015KT CAVOK 23/10 Q1017 NOSIG
LFML 252130Z AUTO 34017KT CAVOK 23/10 Q1017 NOSIG
LFML 252100Z AUTO 34017KT CAVOK 23/10 Q1016 NOSIG
LFML 252030Z AUTO 34018KT CAVOK 24/11 Q1016 NOSIG
LFML 252000Z AUTO 34016KT CAVOK 24/11 Q1016 NOSIG
LFML 251930Z AUTO 27006KT 220V350 CAVOK 24/12 Q1015 NOSIG
LFML 251900Z AUTO 21004KT CAVOK 23/13 Q1015 BECMG 32010KT
LFML 251830Z AUTO 11001KT CAVOK 24/12 Q1015 BECMG 32010KT
LFML 251800Z AUTO 15006KT CAVOK 24/13 Q1015 TEMPO 32015G25KT FEW060TCU
LFML 251730Z AUTO 13010KT 9999 FEW013 BKN070 OVC084 24/14 Q1014 TEMPO 32015G25KT FEW060TCU
LFML 251700Z AUTO 08009KT CAVOK 27/12 Q1013 TEMPO FEW060TCU
LFML 251630Z AUTO VRB05KT CAVOK 28/11 Q1013 TEMPO FEW060TCU
LFML 251600Z AUTO 30007KT 250V340 CAVOK 28/12 Q1013 TEMPO FEW060TCU
LFML 251530Z AUTO 30010KT 270V340 CAVOK 28/11 Q1013 TEMPO 05008KT FEW060TCU
LFML 251500Z AUTO 27011KT CAVOK 26/12 Q1013 TEMPO 05008KT FEW060TCU
LFML 251430Z AUTO 29009KT CAVOK 27/11 Q1013 TEMPO FEW060TCU
LFML 251400Z AUTO 29007KT CAVOK 26/11 Q1013 TEMPO FEW060TCU
LFML 251330Z AUTO 30008KT CAVOK 26/10 Q1013 TEMPO FEW060TCU
LFML 251300Z AUTO 33010KT CAVOK 25/10 Q1013 TEMPO 05008KT FEW060TCU
LFML 251230Z AUTO 33010KT CAVOK 24/10 Q1013 TEMPO 05008KT FEW060TCU
LFML 251200Z AUTO 33012KT CAVOK 24/11 Q1013 NOSIG
LFML 251130Z AUTO 32013KT CAVOK 23/10 Q1013 NOSIG
LFML 251100Z AUTO 33013KT CAVOK 23/11 Q1013 NOSIG
LFML 251030Z AUTO 33013KT CAVOK 23/10 Q1013 NOSIG
LFML 251000Z AUTO 33013KT CAVOK 24/10 Q1013 NOSIG
LFML 250930Z AUTO 32013KT CAVOK 22/10 Q1012 NOSIG
LFML 250900Z AUTO 31013KT CAVOK 22/09 Q1012 NOSIG
LFML 250830Z AUTO 31013KT CAVOK 22/10 Q1012 NOSIG
LFML 250800Z AUTO 33005KT 300V360 CAVOK 22/10 Q1012 TEMPO SCT070TCU
LFML 250730Z AUTO 33006KT 300V010 CAVOK 21/10 Q1011 TEMPO SCT070TCU
LFML 250700Z AUTO 35007KT 320V020 CAVOK 21/10 Q1011 TEMPO SCT070TCU
LFML 250630Z AUTO 35010KT CAVOK 19/10 Q1011 TEMPO SCT070TCU
LFML 250600Z AUTO 36006KT CAVOK 19/09 Q1011 TEMPO SCT070TCU
LFML 250530Z AUTO 35009KT CAVOK 19/09 Q1010 TEMPO SCT070TCU
LFML 250500Z AUTO 35005KT 290V020 CAVOK 19/09 Q1010 TEMPO SCT070TCU
LFML 250430Z AUTO 33010KT CAVOK 19/09 Q1010 TEMPO SCT070TCU
LFML 250400Z AUTO 31010KT CAVOK 18/09 Q1010 TEMPO SCT070TCU
LFML 250330Z AUTO 32009KT CAVOK 18/09 Q1010 TEMPO SCT070TCU
LFML 250300Z AUTO 32010KT CAVOK 19/09 Q1009 TEMPO SCT070TCU
LFML 250230Z AUTO 32011KT CAVOK 19/09 Q1009 TEMPO SCT070TCU
LFML 250200Z AUTO 31014KT CAVOK 19/09 Q1009 TEMPO VRB03KT SCT080TCU
LFML 250130Z AUTO 31011KT CAVOK 20/10 Q1009 TEMPO SCT080TCU
LFML 250100Z AUTO 31010KT CAVOK 19/10 Q1009 TEMPO SCT080TCU
LFML 250030Z AUTO 32010KT CAVOK 20/10 Q1009 TEMPO SCT080TCU
LFML 250000Z AUTO 30011KT CAVOK 19/11 Q1009 TEMPO SCT080TCU
LFML 242330Z AUTO 29009KT CAVOK 19/11 Q1010 TEMPO SCT080TCU
LFML 242300Z AUTO 29009KT CAVOK 19/11 Q1010 TEMPO SCT080TCU
LFML 242230Z AUTO 28013KT CAVOK 20/12 Q1009 TEMPO VRB03KT SCT080TCU
LFML 242200Z AUTO 29007KT CAVOK 20/10 Q1010 TEMPO SCT080TCU
LFML 242130Z AUTO 30009KT CAVOK 20/11 Q1009 TEMPO SCT080TCU
LFML 242100Z AUTO 32010KT CAVOK 22/09 Q1009 NOSIG
LFML 242030Z AUTO 32009KT 9999 FEW009 SCT110 BKN130 22/10 Q1009 NOSIG
LFML 242000Z AUTO 32008KT CAVOK 22/10 Q1009 NOSIG